sensor_id;sensor_type;location;lat;lon;timestamp;pressure;altitude;pressure_sealevel;temperature;humidity
51031;BME280;37058;41.442;23.240;2023-04-09T00:02:23;100732.41;;;7.73;78.98
51031;BME280;37058;41.442;23.240;2023-04-09T00:04:51;100735.28;;;7.78;78.92
51031;BME280;37058;41.442;23.240;2023-04-09T00:07:17;100740.88;;;7.83;78.75
51031;BME280;37058;41.442;23.240;2023-04-09T00:09:42;100745.72;;;7.81;78.51
51031;BME280;37058;41.442;23.240;2023-04-09T00:12:09;100746.16;;;7.78;78.57
51031;BME280;37058;41.442;23.240;2023-04-09T00:14:35;100749.19;;;7.70;78.99
51031;BME280;37058;41.442;23.240;2023-04-09T00:17:01;100748.41;;;7.63;79.55
51031;BME280;37058;41.442;23.240;2023-04-09T00:19:27;100752.94;;;7.69;79.66
51031;BME280;37058;41.442;23.240;2023-04-09T00:21:53;100744.19;;;7.67;80.05
51031;BME280;37058;41.442;23.240;2023-04-09T00:24:18;100740.13;;;7.57;80.66
51031;BME280;37058;41.442;23.240;2023-04-09T00:26:45;100744.31;;;7.53;81.31
51031;BME280;37058;41.442;23.240;2023-04-09T00:29:10;100741.81;;;7.52;81.24
51031;BME280;37058;41.442;23.240;2023-04-09T00:31:36;100745.97;;;7.54;81.38
51031;BME280;37058;41.442;23.240;2023-04-09T00:34:02;100747.66;;;7.55;81.62
51031;BME280;37058;41.442;23.240;2023-04-09T00:36:28;100737.81;;;7.54;81.96
51031;BME280;37058;41.442;23.240;2023-04-09T00:38:54;100748.69;;;7.54;82.33
51031;BME280;37058;41.442;23.240;2023-04-09T00:41:20;100742.28;;;7.49;82.92
51031;BME280;37058;41.442;23.240;2023-04-09T00:43:46;100748.94;;;7.53;82.81
51031;BME280;37058;41.442;23.240;2023-04-09T00:46:11;100742.38;;;7.60;82.59
51031;BME280;37058;41.442;23.240;2023-04-09T00:48:38;100748.34;;;7.69;82.32
51031;BME280;37058;41.442;23.240;2023-04-09T00:51:04;100742.69;;;7.71;81.60
51031;BME280;37058;41.442;23.240;2023-04-09T00:53:30;100737.41;;;7.76;81.34
51031;BME280;37058;41.442;23.240;2023-04-09T00:55:56;100736.19;;;7.72;81.38
51031;BME280;37058;41.442;23.240;2023-04-09T00:58:22;100743.28;;;7.73;81.35
51031;BME280;37058;41.442;23.240;2023-04-09T01:00:48;100754.63;;;7.70;81.59
51031;BME280;37058;41.442;23.240;2023-04-09T01:03:14;100747.97;;;7.66;82.08
51031;BME280;37058;41.442;23.240;2023-04-09T01:06:27;100751.28;;;7.68;82.11
51031;BME280;37058;41.442;23.240;2023-04-09T01:12:11;100763.25;;;7.85;80.71
51031;BME280;37058;41.442;23.240;2023-04-09T01:15:10;100763.59;;;7.89;80.40
51031;BME280;37058;41.442;23.240;2023-04-09T01:21:08;100755.25;;;7.90;80.02
51031;BME280;37058;41.442;23.240;2023-04-09T01:29:22;100752.22;;;7.98;79.26
51031;BME280;37058;41.442;23.240;2023-04-09T01:31:51;100752.81;;;8.00;79.30
51031;BME280;37058;41.442;23.240;2023-04-09T01:34:19;100763.69;;;8.00;79.10
51031;BME280;37058;41.442;23.240;2023-04-09T01:36:52;100762.78;;;7.88;80.01
51031;BME280;37058;41.442;23.240;2023-04-09T01:39:19;100759.47;;;7.86;79.94
51031;BME280;37058;41.442;23.240;2023-04-09T01:41:46;100764.28;;;7.84;80.00
51031;BME280;37058;41.442;23.240;2023-04-09T01:44:13;100766.53;;;7.87;80.08
51031;BME280;37058;41.442;23.240;2023-04-09T01:46:40;100769.25;;;7.87;80.20
51031;BME280;37058;41.442;23.240;2023-04-09T01:49:06;100771.69;;;7.77;80.47
51031;BME280;37058;41.442;23.240;2023-04-09T01:51:34;100765.81;;;7.80;80.56
51031;BME280;37058;41.442;23.240;2023-04-09T01:54:00;100763.53;;;7.77;80.61
51031;BME280;37058;41.442;23.240;2023-04-09T01:56:26;100764.28;;;7.66;81.18
51031;BME280;37058;41.442;23.240;2023-04-09T01:58:52;100759.97;;;7.58;81.45
51031;BME280;37058;41.442;23.240;2023-04-09T02:01:32;100761.91;;;7.51;81.93
51031;BME280;37058;41.442;23.240;2023-04-09T02:04:13;100762.38;;;7.48;82.06
51031;BME280;37058;41.442;23.240;2023-04-09T02:06:57;100759.41;;;7.49;82.34
51031;BME280;37058;41.442;23.240;2023-04-09T02:09:29;100756.84;;;7.54;82.31
51031;BME280;37058;41.442;23.240;2023-04-09T02:11:58;100754.75;;;7.56;81.92
51031;BME280;37058;41.442;23.240;2023-04-09T02:14:27;100753.91;;;7.56;81.92
51031;BME280;37058;41.442;23.240;2023-04-09T02:16:55;100740.31;;;7.56;82.00
51031;BME280;37058;41.442;23.240;2023-04-09T02:19:21;100744.53;;;7.52;82.47
51031;BME280;37058;41.442;23.240;2023-04-09T02:21:47;100746.44;;;7.51;82.75
51031;BME280;37058;41.442;23.240;2023-04-09T02:24:13;100742.88;;;7.51;83.10
51031;BME280;37058;41.442;23.240;2023-04-09T02:26:38;100744.78;;;7.50;83.28
51031;BME280;37058;41.442;23.240;2023-04-09T02:29:04;100742.69;;;7.52;82.75
51031;BME280;37058;41.442;23.240;2023-04-09T02:31:30;100737.66;;;7.49;82.38
51031;BME280;37058;41.442;23.240;2023-04-09T02:33:56;100732.22;;;7.49;82.35
51031;BME280;37058;41.442;23.240;2023-04-09T02:36:22;100721.97;;;7.51;81.96
51031;BME280;37058;41.442;23.240;2023-04-09T02:38:48;100727.41;;;7.51;81.72
51031;BME280;37058;41.442;23.240;2023-04-09T02:41:13;100730.13;;;7.51;81.38
51031;BME280;37058;41.442;23.240;2023-04-09T02:43:39;100739.34;;;7.50;81.25
51031;BME280;37058;41.442;23.240;2023-04-09T02:46:06;100743.56;;;7.46;81.32
51031;BME280;37058;41.442;23.240;2023-04-09T02:48:32;100731.84;;;7.46;81.60
51031;BME280;37058;41.442;23.240;2023-04-09T02:50:58;100733.91;;;7.50;81.56
51031;BME280;37058;41.442;23.240;2023-04-09T02:53:23;100726.94;;;7.54;81.37
51031;BME280;37058;41.442;23.240;2023-04-09T02:55:50;100726.38;;;7.52;81.56
51031;BME280;37058;41.442;23.240;2023-04-09T02:58:16;100730.06;;;7.58;81.48
51031;BME280;37058;41.442;23.240;2023-04-09T03:00:42;100738.88;;;7.53;81.88
51031;BME280;37058;41.442;23.240;2023-04-09T03:03:08;100734.69;;;7.57;81.87
51031;BME280;37058;41.442;23.240;2023-04-09T03:05:33;100746.84;;;7.55;81.86
51031;BME280;37058;41.442;23.240;2023-04-09T03:08:01;100746.66;;;7.50;81.97
51031;BME280;37058;41.442;23.240;2023-04-09T03:10:26;100750.22;;;7.50;82.05
51031;BME280;37058;41.442;23.240;2023-04-09T03:12:52;100742.50;;;7.47;82.31
51031;BME280;37058;41.442;23.240;2023-04-09T03:15:18;100736.00;;;7.48;82.44
51031;BME280;37058;41.442;23.240;2023-04-09T03:17:44;100743.56;;;7.46;82.37
51031;BME280;37058;41.442;23.240;2023-04-09T03:20:10;100747.34;;;7.45;82.24
51031;BME280;37058;41.442;23.240;2023-04-09T03:22:37;100748.22;;;7.39;82.69
51031;BME280;37058;41.442;23.240;2023-04-09T03:25:03;100739.53;;;7.30;83.12
51031;BME280;37058;41.442;23.240;2023-04-09T03:27:31;100737.88;;;7.29;83.25
51031;BME280;37058;41.442;23.240;2023-04-09T03:29:57;100742.47;;;7.29;83.36
51031;BME280;37058;41.442;23.240;2023-04-09T03:32:23;100739.97;;;7.27;83.27
51031;BME280;37058;41.442;23.240;2023-04-09T03:34:49;100743.38;;;7.23;83.77
51031;BME280;37058;41.442;23.240;2023-04-09T03:37:15;100739.38;;;7.25;83.83
51031;BME280;37058;41.442;23.240;2023-04-09T03:39:41;100742.13;;;7.19;84.12
51031;BME280;37058;41.442;23.240;2023-04-09T03:42:07;100745.41;;;7.02;85.30
51031;BME280;37058;41.442;23.240;2023-04-09T03:44:33;100748.13;;;7.02;85.61
51031;BME280;37058;41.442;23.240;2023-04-09T03:46:58;100760.59;;;7.10;85.40
51031;BME280;37058;41.442;23.240;2023-04-09T03:49:24;100749.69;;;7.16;84.99
51031;BME280;37058;41.442;23.240;2023-04-09T03:51:50;100758.59;;;7.24;84.64
51031;BME280;37058;41.442;23.240;2023-04-09T03:54:16;100754.56;;;7.33;84.29
51031;BME280;37058;41.442;23.240;2023-04-09T03:56:42;100755.34;;;7.40;83.67
51031;BME280;37058;41.442;23.240;2023-04-09T03:59:08;100763.03;;;7.43;83.03
51031;BME280;37058;41.442;23.240;2023-04-09T04:01:34;100756.53;;;7.44;82.99
51031;BME280;37058;41.442;23.240;2023-04-09T04:03:59;100754.88;;;7.43;82.75
51031;BME280;37058;41.442;23.240;2023-04-09T04:06:25;100761.59;;;7.41;82.72
51031;BME280;37058;41.442;23.240;2023-04-09T04:08:52;100754.34;;;7.34;82.99
51031;BME280;37058;41.442;23.240;2023-04-09T04:11:18;100759.63;;;7.29;83.36
51031;BME280;37058;41.442;23.240;2023-04-09T04:13:44;100765.09;;;7.23;84.67
51031;BME280;37058;41.442;23.240;2023-04-09T04:16:09;100768.88;;;7.22;84.89
51031;BME280;37058;41.442;23.240;2023-04-09T04:18:36;100767.25;;;7.14;85.62
51031;BME280;37058;41.442;23.240;2023-04-09T04:21:02;100764.47;;;7.21;85.34
51031;BME280;37058;41.442;23.240;2023-04-09T04:23:28;100769.72;;;7.22;85.53
51031;BME280;37058;41.442;23.240;2023-04-09T04:25:54;100769.88;;;7.27;85.24
51031;BME280;37058;41.442;23.240;2023-04-09T04:28:21;100765.41;;;7.33;84.75
51031;BME280;37058;41.442;23.240;2023-04-09T04:30:47;100772.09;;;7.37;84.40
51031;BME280;37058;41.442;23.240;2023-04-09T04:33:13;100773.69;;;7.45;84.18
51031;BME280;37058;41.442;23.240;2023-04-09T04:35:39;100772.84;;;7.44;84.12
51031;BME280;37058;41.442;23.240;2023-04-09T04:38:05;100782.84;;;7.50;83.70
51031;BME280;37058;41.442;23.240;2023-04-09T04:40:31;100777.84;;;7.47;83.48
51031;BME280;37058;41.442;23.240;2023-04-09T04:42:56;100790.31;;;7.55;83.59
51031;BME280;37058;41.442;23.240;2023-04-09T04:45:22;100787.81;;;7.53;83.42
51031;BME280;37058;41.442;23.240;2023-04-09T04:47:48;100792.19;;;7.54;83.35
51031;BME280;37058;41.442;23.240;2023-04-09T04:50:14;100785.84;;;7.42;83.99
51031;BME280;37058;41.442;23.240;2023-04-09T04:52:40;100780.41;;;7.42;84.03
51031;BME280;37058;41.442;23.240;2023-04-09T04:55:06;100787.66;;;7.48;83.82
51031;BME280;37058;41.442;23.240;2023-04-09T04:57:32;100793.69;;;7.50;83.82
51031;BME280;37058;41.442;23.240;2023-04-09T04:59:58;100794.56;;;7.44;84.25
51031;BME280;37058;41.442;23.240;2023-04-09T05:02:24;100800.00;;;7.44;84.33
51031;BME280;37058;41.442;23.240;2023-04-09T05:04:50;100799.59;;;7.47;83.91
51031;BME280;37058;41.442;23.240;2023-04-09T05:07:16;100800.63;;;7.46;84.19
51031;BME280;37058;41.442;23.240;2023-04-09T05:09:41;100797.88;;;7.53;84.33
51031;BME280;37058;41.442;23.240;2023-04-09T05:12:08;100796.75;;;7.60;84.34
51031;BME280;37058;41.442;23.240;2023-04-09T05:14:34;100804.22;;;7.65;84.20
51031;BME280;37058;41.442;23.240;2023-04-09T05:17:00;100805.22;;;7.71;84.07
51031;BME280;37058;41.442;23.240;2023-04-09T05:19:26;100798.88;;;7.77;83.72
51031;BME280;37058;41.442;23.240;2023-04-09T05:21:52;100801.75;;;7.82;83.67
51031;BME280;37058;41.442;23.240;2023-04-09T05:24:18;100802.97;;;7.86;83.67
51031;BME280;37058;41.442;23.240;2023-04-09T05:26:44;100807.94;;;7.89;83.58
51031;BME280;37058;41.442;23.240;2023-04-09T05:29:10;100799.94;;;7.94;82.93
51031;BME280;37058;41.442;23.240;2023-04-09T05:31:36;100799.94;;;7.94;82.76
51031;BME280;37058;41.442;23.240;2023-04-09T05:34:02;100801.53;;;8.02;83.07
51031;BME280;37058;41.442;23.240;2023-04-09T05:36:28;100803.13;;;8.10;82.34
51031;BME280;37058;41.442;23.240;2023-04-09T05:38:53;100811.00;;;8.18;81.97
51031;BME280;37058;41.442;23.240;2023-04-09T05:41:19;100818.84;;;8.26;81.47
51031;BME280;37058;41.442;23.240;2023-04-09T05:43:45;100816.13;;;8.26;81.72
51031;BME280;37058;41.442;23.240;2023-04-09T05:46:11;100825.28;;;8.32;81.47
51031;BME280;37058;41.442;23.240;2023-04-09T05:48:37;100826.69;;;8.34;81.23
51031;BME280;37058;41.442;23.240;2023-04-09T05:51:03;100818.03;;;8.44;81.86
51031;BME280;37058;41.442;23.240;2023-04-09T05:53:30;100826.25;;;8.37;82.81
51031;BME280;37058;41.442;23.240;2023-04-09T05:55:56;100811.88;;;8.30;82.71
51031;BME280;37058;41.442;23.240;2023-04-09T05:58:22;100818.91;;;8.19;83.50
51031;BME280;37058;41.442;23.240;2023-04-09T06:00:47;100816.88;;;8.15;82.74
51031;BME280;37058;41.442;23.240;2023-04-09T06:03:16;100821.88;;;8.18;84.44
51031;BME280;37058;41.442;23.240;2023-04-09T06:05:44;100815.38;;;8.19;83.93
51031;BME280;37058;41.442;23.240;2023-04-09T06:08:10;100821.28;;;8.16;82.69
51031;BME280;37058;41.442;23.240;2023-04-09T06:10:36;100821.44;;;8.21;83.18
51031;BME280;37058;41.442;23.240;2023-04-09T06:13:01;100825.13;;;8.27;83.14
51031;BME280;37058;41.442;23.240;2023-04-09T06:15:27;100818.72;;;8.39;83.77
51031;BME280;37058;41.442;23.240;2023-04-09T06:17:53;100827.03;;;8.44;83.29
51031;BME280;37058;41.442;23.240;2023-04-09T06:20:19;100829.81;;;8.56;81.39
51031;BME280;37058;41.442;23.240;2023-04-09T06:22:45;100823.97;;;8.71;79.98
51031;BME280;37058;41.442;23.240;2023-04-09T06:25:11;100828.91;;;8.93;78.55
51031;BME280;37058;41.442;23.240;2023-04-09T06:27:37;100819.59;;;9.12;77.48
51031;BME280;37058;41.442;23.240;2023-04-09T06:30:03;100825.00;;;9.42;76.46
51031;BME280;37058;41.442;23.240;2023-04-09T06:32:29;100822.88;;;9.56;76.08
51031;BME280;37058;41.442;23.240;2023-04-09T06:34:55;100813.88;;;9.91;74.87
51031;BME280;37058;41.442;23.240;2023-04-09T06:37:21;100818.94;;;10.11;74.19
51031;BME280;37058;41.442;23.240;2023-04-09T06:39:47;100821.06;;;10.20;72.32
51031;BME280;37058;41.442;23.240;2023-04-09T06:42:12;100826.97;;;10.17;72.74
51031;BME280;37058;41.442;23.240;2023-04-09T06:44:38;100821.06;;;10.20;72.56
51031;BME280;37058;41.442;23.240;2023-04-09T06:47:04;100826.75;;;10.19;73.83
51031;BME280;37058;41.442;23.240;2023-04-09T06:49:30;100825.81;;;10.37;72.06
51031;BME280;37058;41.442;23.240;2023-04-09T06:51:56;100830.53;;;10.41;71.23
51031;BME280;37058;41.442;23.240;2023-04-09T06:54:22;100820.13;;;10.38;71.18
51031;BME280;37058;41.442;23.240;2023-04-09T06:56:48;100823.19;;;10.42;73.54
51031;BME280;37058;41.442;23.240;2023-04-09T06:59:14;100825.09;;;10.41;75.06
51031;BME280;37058;41.442;23.240;2023-04-09T07:01:41;100820.72;;;10.29;76.47
51031;BME280;37058;41.442;23.240;2023-04-09T07:04:07;100812.63;;;10.22;76.63
51031;BME280;37058;41.442;23.240;2023-04-09T07:06:33;100822.22;;;10.25;75.48
51031;BME280;37058;41.442;23.240;2023-04-09T07:08:59;100816.19;;;10.23;76.30
51031;BME280;37058;41.442;23.240;2023-04-09T07:11:25;100820.00;;;10.22;75.96
51031;BME280;37058;41.442;23.240;2023-04-09T07:13:51;100822.00;;;10.26;75.53
51031;BME280;37058;41.442;23.240;2023-04-09T07:16:17;100819.63;;;10.41;72.83
51031;BME280;37058;41.442;23.240;2023-04-09T07:18:42;100828.03;;;10.40;72.63
51031;BME280;37058;41.442;23.240;2023-04-09T07:21:08;100823.88;;;10.49;71.58
51031;BME280;37058;41.442;23.240;2023-04-09T07:23:35;100817.19;;;10.57;71.39
51031;BME280;37058;41.442;23.240;2023-04-09T07:26:04;100823.75;;;10.56;69.41
51031;BME280;37058;41.442;23.240;2023-04-09T07:28:30;100816.22;;;10.63;69.50
51031;BME280;37058;41.442;23.240;2023-04-09T07:30:57;100819.69;;;10.58;68.26
51031;BME280;37058;41.442;23.240;2023-04-09T07:33:23;100809.91;;;10.62;68.54
51031;BME280;37058;41.442;23.240;2023-04-09T07:35:49;100812.94;;;10.78;68.61
51031;BME280;37058;41.442;23.240;2023-04-09T07:38:15;100807.53;;;10.95;68.35
51031;BME280;37058;41.442;23.240;2023-04-09T07:40:41;100815.28;;;11.15;67.57
51031;BME280;37058;41.442;23.240;2023-04-09T07:43:07;100809.72;;;11.26;66.44
51031;BME280;37058;41.442;23.240;2023-04-09T07:45:33;100812.97;;;11.40;65.88
51031;BME280;37058;41.442;23.240;2023-04-09T07:47:59;100812.22;;;11.45;65.60
51031;BME280;37058;41.442;23.240;2023-04-09T07:50:25;100805.75;;;11.51;65.32
51031;BME280;37058;41.442;23.240;2023-04-09T07:52:51;100806.66;;;11.57;65.13
51031;BME280;37058;41.442;23.240;2023-04-09T07:55:17;100806.91;;;11.55;64.79
51031;BME280;37058;41.442;23.240;2023-04-09T07:57:44;100806.56;;;11.52;64.89
51031;BME280;37058;41.442;23.240;2023-04-09T08:00:11;100804.34;;;11.48;64.55
51031;BME280;37058;41.442;23.240;2023-04-09T08:02:37;100809.38;;;11.57;65.27
51031;BME280;37058;41.442;23.240;2023-04-09T08:05:03;100807.66;;;11.67;64.86
51031;BME280;37058;41.442;23.240;2023-04-09T08:07:29;100802.72;;;11.69;64.38
51031;BME280;37058;41.442;23.240;2023-04-09T08:09:55;100805.75;;;11.68;63.75
51031;BME280;37058;41.442;23.240;2023-04-09T08:12:21;100805.06;;;11.78;63.63
51031;BME280;37058;41.442;23.240;2023-04-09T08:14:47;100806.56;;;11.85;63.30
51031;BME280;37058;41.442;23.240;2023-04-09T08:17:13;100805.56;;;11.91;62.46
51031;BME280;37058;41.442;23.240;2023-04-09T08:19:39;100800.81;;;12.04;61.41
51031;BME280;37058;41.442;23.240;2023-04-09T08:22:05;100809.66;;;12.11;61.11
51031;BME280;37058;41.442;23.240;2023-04-09T08:24:31;100809.16;;;12.14;61.42
51031;BME280;37058;41.442;23.240;2023-04-09T08:26:57;100810.38;;;12.23;62.43
51031;BME280;37058;41.442;23.240;2023-04-09T08:29:23;100796.59;;;12.40;62.68
51031;BME280;37058;41.442;23.240;2023-04-09T08:31:48;100800.31;;;12.51;61.34
51031;BME280;37058;41.442;23.240;2023-04-09T08:34:15;100802.66;;;12.64;61.21
51031;BME280;37058;41.442;23.240;2023-04-09T08:36:45;100801.91;;;12.69;60.86
51031;BME280;37058;41.442;23.240;2023-04-09T08:39:11;100798.72;;;12.82;61.60
51031;BME280;37058;41.442;23.240;2023-04-09T08:41:41;100785.38;;;12.91;60.51
51031;BME280;37058;41.442;23.240;2023-04-09T08:44:11;100792.63;;;13.02;60.62
51031;BME280;37058;41.442;23.240;2023-04-09T08:46:36;100793.28;;;13.14;60.38
51031;BME280;37058;41.442;23.240;2023-04-09T08:49:02;100787.31;;;13.22;59.89
51031;BME280;37058;41.442;23.240;2023-04-09T08:51:28;100795.50;;;13.17;59.83
51031;BME280;37058;41.442;23.240;2023-04-09T08:56:22;100791.34;;;13.37;60.19
51031;BME280;37058;41.442;23.240;2023-04-09T08:58:49;100780.44;;;13.47;60.16
51031;BME280;37058;41.442;23.240;2023-04-09T09:01:29;100785.44;;;13.55;59.84
51031;BME280;37058;41.442;23.240;2023-04-09T09:04:04;100788.47;;;13.59;58.81
51031;BME280;37058;41.442;23.240;2023-04-09T09:06:38;100784.88;;;13.58;58.64
51031;BME280;37058;41.442;23.240;2023-04-09T09:09:14;100790.38;;;13.58;58.59
51031;BME280;37058;41.442;23.240;2023-04-09T09:11:46;100774.44;;;13.55;58.52
51031;BME280;37058;41.442;23.240;2023-04-09T09:14:18;100786.78;;;13.53;58.95
51031;BME280;37058;41.442;23.240;2023-04-09T09:17:03;100784.59;;;13.55;59.48
51031;BME280;37058;41.442;23.240;2023-04-09T09:19:32;100781.66;;;13.66;58.91
51031;BME280;37058;41.442;23.240;2023-04-09T09:22:02;100772.41;;;13.78;58.46
51031;BME280;37058;41.442;23.240;2023-04-09T09:24:30;100771.88;;;13.81;58.61
51031;BME280;37058;41.442;23.240;2023-04-09T09:26:57;100768.38;;;13.96;58.77
51031;BME280;37058;41.442;23.240;2023-04-09T09:29:24;100771.16;;;14.01;58.20
51031;BME280;37058;41.442;23.240;2023-04-09T09:31:52;100767.06;;;14.08;58.15
51031;BME280;37058;41.442;23.240;2023-04-09T09:34:20;100772.63;;;14.19;58.22
51031;BME280;37058;41.442;23.240;2023-04-09T09:36:46;100763.59;;;14.34;57.99
51031;BME280;37058;41.442;23.240;2023-04-09T09:39:14;100762.81;;;14.43;57.52
51031;BME280;37058;41.442;23.240;2023-04-09T09:41:43;100761.78;;;14.55;57.25
51031;BME280;37058;41.442;23.240;2023-04-09T09:44:11;100760.41;;;14.57;56.49
51031;BME280;37058;41.442;23.240;2023-04-09T09:46:41;100759.06;;;14.65;56.08
51031;BME280;37058;41.442;23.240;2023-04-09T09:49:09;100753.00;;;14.68;55.65
51031;BME280;37058;41.442;23.240;2023-04-09T09:51:38;100750.25;;;14.68;56.12
51031;BME280;37058;41.442;23.240;2023-04-09T09:54:07;100749.19;;;14.74;56.06
51031;BME280;37058;41.442;23.240;2023-04-09T09:56:38;100755.25;;;14.81;55.48
51031;BME280;37058;41.442;23.240;2023-04-09T09:59:23;100747.25;;;14.85;55.42
51031;BME280;37058;41.442;23.240;2023-04-09T10:01:59;100746.47;;;14.94;54.61
51031;BME280;37058;41.442;23.240;2023-04-09T10:04:32;100742.03;;;14.88;55.47
51031;BME280;37058;41.442;23.240;2023-04-09T10:06:59;100743.69;;;14.89;53.87
51031;BME280;37058;41.442;23.240;2023-04-09T10:09:29;100738.19;;;14.89;54.31
51031;BME280;37058;41.442;23.240;2023-04-09T10:11:57;100737.38;;;14.99;54.05
51031;BME280;37058;41.442;23.240;2023-04-09T10:14:25;100735.16;;;15.01;52.88
51031;BME280;37058;41.442;23.240;2023-04-09T10:16:53;100734.63;;;15.04;52.43
51031;BME280;37058;41.442;23.240;2023-04-09T10:19:19;100731.59;;;15.11;52.57
51031;BME280;37058;41.442;23.240;2023-04-09T10:21:50;100731.03;;;15.24;52.05
51031;BME280;37058;41.442;23.240;2023-04-09T10:24:19;100723.63;;;15.30;50.25
51031;BME280;37058;41.442;23.240;2023-04-09T10:26:46;100723.88;;;15.38;49.65
51031;BME280;37058;41.442;23.240;2023-04-09T10:29:14;100716.72;;;15.37;48.40
51031;BME280;37058;41.442;23.240;2023-04-09T10:32:04;100711.78;;;15.34;48.60
51031;BME280;37058;41.442;23.240;2023-04-09T10:34:39;100702.97;;;15.37;49.28
51031;BME280;37058;41.442;23.240;2023-04-09T10:37:08;100704.03;;;15.47;49.07
51031;BME280;37058;41.442;23.240;2023-04-09T10:39:39;100703.75;;;15.58;49.15
51031;BME280;37058;41.442;23.240;2023-04-09T10:42:17;100696.56;;;15.68;48.05
51031;BME280;37058;41.442;23.240;2023-04-09T10:44:47;100687.19;;;15.69;45.37
51031;BME280;37058;41.442;23.240;2023-04-09T10:47:34;100680.59;;;15.59;46.84
51031;BME280;37058;41.442;23.240;2023-04-09T10:50:20;100681.13;;;15.67;46.98
51031;BME280;37058;41.442;23.240;2023-04-09T10:52:50;100674.00;;;15.76;47.45
51031;BME280;37058;41.442;23.240;2023-04-09T10:55:46;100671.22;;;15.81;47.40
51031;BME280;37058;41.442;23.240;2023-04-09T10:58:13;100664.31;;;15.89;47.25
51031;BME280;37058;41.442;23.240;2023-04-09T11:00:44;100662.09;;;15.91;46.70
51031;BME280;37058;41.442;23.240;2023-04-09T11:03:23;100656.25;;;15.97;46.92
51031;BME280;37058;41.442;23.240;2023-04-09T11:08:28;100645.19;;;16.08;47.34
51031;BME280;37058;41.442;23.240;2023-04-09T11:10:56;100644.41;;;16.02;47.36
51031;BME280;37058;41.442;23.240;2023-04-09T11:13:27;100639.69;;;16.08;47.73
51031;BME280;37058;41.442;23.240;2023-04-09T11:15:54;100643.78;;;16.10;49.52
51031;BME280;37058;41.442;23.240;2023-04-09T11:18:28;100636.63;;;16.14;48.93
51031;BME280;37058;41.442;23.240;2023-04-09T11:20:56;100638.56;;;16.14;48.31
51031;BME280;37058;41.442;23.240;2023-04-09T11:23:23;100631.13;;;16.14;49.08
51031;BME280;37058;41.442;23.240;2023-04-09T11:25:50;100629.44;;;16.18;49.20
51031;BME280;37058;41.442;23.240;2023-04-09T11:28:17;100627.75;;;16.22;50.40
51031;BME280;37058;41.442;23.240;2023-04-09T11:30:44;100623.91;;;16.23;50.58
51031;BME280;37058;41.442;23.240;2023-04-09T11:33:12;100613.16;;;16.22;49.28
51031;BME280;37058;41.442;23.240;2023-04-09T11:35:38;100614.50;;;16.24;50.54
51031;BME280;37058;41.442;23.240;2023-04-09T11:38:08;100613.41;;;16.25;51.09
51031;BME280;37058;41.442;23.240;2023-04-09T11:40:36;100618.66;;;16.22;51.51
51031;BME280;37058;41.442;23.240;2023-04-09T11:43:02;100606.00;;;16.21;51.67
51031;BME280;37058;41.442;23.240;2023-04-09T11:45:29;100613.16;;;16.22;50.28
51031;BME280;37058;41.442;23.240;2023-04-09T11:47:56;100607.06;;;16.25;50.85
51031;BME280;37058;41.442;23.240;2023-04-09T11:50:22;100601.31;;;16.21;50.71
51031;BME280;37058;41.442;23.240;2023-04-09T11:52:49;100610.16;;;16.18;50.38
51031;BME280;37058;41.442;23.240;2023-04-09T11:55:28;100606.88;;;16.11;50.71
51031;BME280;37058;41.442;23.240;2023-04-09T11:57:59;100604.16;;;16.06;49.87
51031;BME280;37058;41.442;23.240;2023-04-09T12:00:26;100611.34;;;16.02;50.18
51031;BME280;37058;41.442;23.240;2023-04-09T12:03:03;100597.03;;;16.00;50.13
51031;BME280;37058;41.442;23.240;2023-04-09T12:05:32;100591.34;;;15.86;50.33
51031;BME280;37058;41.442;23.240;2023-04-09T12:08:05;100587.75;;;15.86;49.65
51031;BME280;37058;41.442;23.240;2023-04-09T12:10:35;100594.63;;;15.88;49.48
51031;BME280;37058;41.442;23.240;2023-04-09T12:13:08;100586.91;;;15.90;49.25
51031;BME280;37058;41.442;23.240;2023-04-09T12:15:40;100587.44;;;15.92;49.22
51031;BME280;37058;41.442;23.240;2023-04-09T12:18:10;100577.78;;;15.95;50.22
51031;BME280;37058;41.442;23.240;2023-04-09T12:20:42;100579.41;;;16.01;49.44
51031;BME280;37058;41.442;23.240;2023-04-09T12:23:10;100581.81;;;16.08;49.19
51031;BME280;37058;41.442;23.240;2023-04-09T12:25:39;100578.22;;;16.12;49.26
51031;BME280;37058;41.442;23.240;2023-04-09T12:28:08;100577.91;;;16.19;48.35
51031;BME280;37058;41.442;23.240;2023-04-09T12:30:34;100579.81;;;16.23;47.23
51031;BME280;37058;41.442;23.240;2023-04-09T12:33:02;100576.19;;;16.28;47.25
51031;BME280;37058;41.442;23.240;2023-04-09T12:35:28;100574.81;;;16.31;47.32
51031;BME280;37058;41.442;23.240;2023-04-09T12:37:54;100572.00;;;16.36;48.43
51031;BME280;37058;41.442;23.240;2023-04-09T12:40:21;100575.59;;;16.36;48.88
51031;BME280;37058;41.442;23.240;2023-04-09T12:42:47;100580.88;;;16.28;49.29
51031;BME280;37058;41.442;23.240;2023-04-09T12:45:15;100574.56;;;16.22;49.02
51031;BME280;37058;41.442;23.240;2023-04-09T12:47:42;100568.81;;;16.18;48.50
51031;BME280;37058;41.442;23.240;2023-04-09T12:50:09;100567.75;;;16.14;49.18
51031;BME280;37058;41.442;23.240;2023-04-09T12:52:36;100564.47;;;16.07;49.70
51031;BME280;37058;41.442;23.240;2023-04-09T12:55:03;100566.69;;;16.05;49.95
51031;BME280;37058;41.442;23.240;2023-04-09T12:57:30;100566.69;;;16.05;49.91
51031;BME280;37058;41.442;23.240;2023-04-09T12:59:56;100565.09;;;15.99;49.98
51031;BME280;37058;41.442;23.240;2023-04-09T13:02:22;100559.03;;;15.97;49.52
51031;BME280;37058;41.442;23.240;2023-04-09T13:04:49;100563.50;;;15.93;49.36
51031;BME280;37058;41.442;23.240;2023-04-09T13:07:16;100563.53;;;15.88;49.75